sensor_id;sensor_type;location;lat;lon;timestamp;temperature;humidity
24217;DHT22;12356;49.386;8.688;2023-07-02T00:02:30;18.50;73.60
24217;DHT22;12356;49.386;8.688;2023-07-02T00:05:00;18.40;72.00
24217;DHT22;12356;49.386;8.688;2023-07-02T00:07:31;18.40;72.50
24217;DHT22;12356;49.386;8.688;2023-07-02T00:10:02;18.40;73.20
24217;DHT22;12356;49.386;8.688;2023-07-02T00:12:33;18.30;73.20
24217;DHT22;12356;49.386;8.688;2023-07-02T00:15:04;18.30;73.00
24217;DHT22;12356;49.386;8.688;2023-07-02T00:17:34;18.30;73.40
24217;DHT22;12356;49.386;8.688;2023-07-02T00:20:07;18.30;73.60
24217;DHT22;12356;49.386;8.688;2023-07-02T00:22:44;18.30;73.40
24217;DHT22;12356;49.386;8.688;2023-07-02T00:25:16;18.30;73.10
24217;DHT22;12356;49.386;8.688;2023-07-02T00:27:47;18.40;73.70
24217;DHT22;12356;49.386;8.688;2023-07-02T00:30:18;18.40;74.00
24217;DHT22;12356;49.386;8.688;2023-07-02T00:32:49;18.30;74.30
24217;DHT22;12356;49.386;8.688;2023-07-02T00:35:20;18.30;74.60
24217;DHT22;12356;49.386;8.688;2023-07-02T00:37:51;18.30;73.90
24217;DHT22;12356;49.386;8.688;2023-07-02T00:40:21;18.30;73.10
24217;DHT22;12356;49.386;8.688;2023-07-02T00:42:52;18.30;72.80
24217;DHT22;12356;49.386;8.688;2023-07-02T00:45:22;18.30;72.70
24217;DHT22;12356;49.386;8.688;2023-07-02T00:47:56;18.30;72.40
24217;DHT22;12356;49.386;8.688;2023-07-02T00:50:27;18.30;72.90
24217;DHT22;12356;49.386;8.688;2023-07-02T00:52:58;18.30;73.20
24217;DHT22;12356;49.386;8.688;2023-07-02T00:55:28;18.30;72.60
24217;DHT22;12356;49.386;8.688;2023-07-02T00:57:59;18.30;72.30
24217;DHT22;12356;49.386;8.688;2023-07-02T01:00:30;18.20;71.90
24217;DHT22;12356;49.386;8.688;2023-07-02T01:03:01;18.30;71.90
24217;DHT22;12356;49.386;8.688;2023-07-02T01:05:31;18.30;72.40
24217;DHT22;12356;49.386;8.688;2023-07-02T01:08:05;18.20;72.00
24217;DHT22;12356;49.386;8.688;2023-07-02T01:10:36;18.20;72.00
24217;DHT22;12356;49.386;8.688;2023-07-02T01:13:19;18.20;71.80
24217;DHT22;12356;49.386;8.688;2023-07-02T01:15:51;18.20;72.20
24217;DHT22;12356;49.386;8.688;2023-07-02T01:18:22;18.20;72.90
24217;DHT22;12356;49.386;8.688;2023-07-02T01:20:53;18.20;73.30
24217;DHT22;12356;49.386;8.688;2023-07-02T01:23:25;18.10;73.00
24217;DHT22;12356;49.386;8.688;2023-07-02T01:25:55;18.10;72.60
24217;DHT22;12356;49.386;8.688;2023-07-02T01:28:35;18.00;73.20
24217;DHT22;12356;49.386;8.688;2023-07-02T01:31:07;18.00;72.30
24217;DHT22;12356;49.386;8.688;2023-07-02T01:33:37;18.10;72.70
24217;DHT22;12356;49.386;8.688;2023-07-02T01:36:08;18.00;72.90
24217;DHT22;12356;49.386;8.688;2023-07-02T01:38:39;18.10;73.10
24217;DHT22;12356;49.386;8.688;2023-07-02T01:41:09;18.10;73.20
24217;DHT22;12356;49.386;8.688;2023-07-02T01:43:40;18.10;73.40
24217;DHT22;12356;49.386;8.688;2023-07-02T01:46:10;18.20;73.80
24217;DHT22;12356;49.386;8.688;2023-07-02T01:48:41;18.10;73.70
24217;DHT22;12356;49.386;8.688;2023-07-02T01:51:12;18.00;73.30
24217;DHT22;12356;49.386;8.688;2023-07-02T01:53:44;18.10;73.80
24217;DHT22;12356;49.386;8.688;2023-07-02T01:56:14;18.10;74.20
24217;DHT22;12356;49.386;8.688;2023-07-02T01:58:45;18.20;74.60
24217;DHT22;12356;49.386;8.688;2023-07-02T02:01:15;18.10;74.80
24217;DHT22;12356;49.386;8.688;2023-07-02T02:03:46;18.20;75.10
24217;DHT22;12356;49.386;8.688;2023-07-02T02:06:16;18.10;74.90
24217;DHT22;12356;49.386;8.688;2023-07-02T02:08:47;18.20;74.70
24217;DHT22;12356;49.386;8.688;2023-07-02T02:11:17;18.10;74.50
24217;DHT22;12356;49.386;8.688;2023-07-02T02:13:48;18.10;74.60
24217;DHT22;12356;49.386;8.688;2023-07-02T02:16:20;18.10;74.80
24217;DHT22;12356;49.386;8.688;2023-07-02T02:18:50;18.10;74.50
24217;DHT22;12356;49.386;8.688;2023-07-02T02:21:22;18.10;73.90
24217;DHT22;12356;49.386;8.688;2023-07-02T02:23:53;18.10;72.80
24217;DHT22;12356;49.386;8.688;2023-07-02T02:26:23;18.10;72.40
24217;DHT22;12356;49.386;8.688;2023-07-02T02:28:56;18.10;72.30
24217;DHT22;12356;49.386;8.688;2023-07-02T02:31:27;18.20;72.00
24217;DHT22;12356;49.386;8.688;2023-07-02T02:33:58;18.10;73.00
24217;DHT22;12356;49.386;8.688;2023-07-02T02:36:29;18.20;72.20
24217;DHT22;12356;49.386;8.688;2023-07-02T02:38:59;18.10;71.70
24217;DHT22;12356;49.386;8.688;2023-07-02T02:41:30;18.10;70.40
24217;DHT22;12356;49.386;8.688;2023-07-02T02:44:01;18.10;69.90
24217;DHT22;12356;49.386;8.688;2023-07-02T02:46:31;18.10;68.80
24217;DHT22;12356;49.386;8.688;2023-07-02T02:49:02;18.00;67.80
24217;DHT22;12356;49.386;8.688;2023-07-02T02:51:32;18.00;67.30
24217;DHT22;12356;49.386;8.688;2023-07-02T02:54:03;17.90;66.20
24217;DHT22;12356;49.386;8.688;2023-07-02T02:56:34;17.90;64.80
24217;DHT22;12356;49.386;8.688;2023-07-02T02:59:04;17.90;64.40
24217;DHT22;12356;49.386;8.688;2023-07-02T03:01:35;17.90;63.80
24217;DHT22;12356;49.386;8.688;2023-07-02T03:04:05;17.90;62.40
24217;DHT22;12356;49.386;8.688;2023-07-02T03:06:39;17.80;60.50
24217;DHT22;12356;49.386;8.688;2023-07-02T03:09:10;17.90;60.30
24217;DHT22;12356;49.386;8.688;2023-07-02T03:11:40;17.80;55.20
24217;DHT22;12356;49.386;8.688;2023-07-02T03:14:11;17.80;55.80
24217;DHT22;12356;49.386;8.688;2023-07-02T03:16:42;17.80;57.20
24217;DHT22;12356;49.386;8.688;2023-07-02T03:19:15;17.80;58.50
24217;DHT22;12356;49.386;8.688;2023-07-02T03:21:46;17.70;60.30
24217;DHT22;12356;49.386;8.688;2023-07-02T03:24:17;17.70;60.30
24217;DHT22;12356;49.386;8.688;2023-07-02T03:26:48;17.70;59.00
24217;DHT22;12356;49.386;8.688;2023-07-02T03:29:18;17.70;59.10
24217;DHT22;12356;49.386;8.688;2023-07-02T03:31:50;17.60;58.50
24217;DHT22;12356;49.386;8.688;2023-07-02T03:34:21;17.60;56.90
24217;DHT22;12356;49.386;8.688;2023-07-02T03:36:54;17.50;56.30
24217;DHT22;12356;49.386;8.688;2023-07-02T03:39:25;17.50;55.80
24217;DHT22;12356;49.386;8.688;2023-07-02T03:41:55;17.50;55.90
24217;DHT22;12356;49.386;8.688;2023-07-02T03:44:26;17.50;57.00
24217;DHT22;12356;49.386;8.688;2023-07-02T03:46:56;17.50;57.70
24217;DHT22;12356;49.386;8.688;2023-07-02T03:49:27;17.50;58.40
24217;DHT22;12356;49.386;8.688;2023-07-02T03:51:57;17.50;58.40
24217;DHT22;12356;49.386;8.688;2023-07-02T03:54:28;17.50;58.20
24217;DHT22;12356;49.386;8.688;2023-07-02T03:56:58;17.50;59.50
24217;DHT22;12356;49.386;8.688;2023-07-02T03:59:29;17.50;59.40
24217;DHT22;12356;49.386;8.688;2023-07-02T04:01:59;17.50;59.90
24217;DHT22;12356;49.386;8.688;2023-07-02T04:04:30;17.50;59.50
24217;DHT22;12356;49.386;8.688;2023-07-02T04:07:01;17.50;60.20
24217;DHT22;12356;49.386;8.688;2023-07-02T04:09:31;17.60;60.60
24217;DHT22;12356;49.386;8.688;2023-07-02T04:12:04;17.50;60.10
24217;DHT22;12356;49.386;8.688;2023-07-02T04:14:34;17.50;58.80
24217;DHT22;12356;49.386;8.688;2023-07-02T04:17:05;17.50;58.70
24217;DHT22;12356;49.386;8.688;2023-07-02T04:19:36;17.50;58.40
24217;DHT22;12356;49.386;8.688;2023-07-02T04:22:06;17.40;58.90
24217;DHT22;12356;49.386;8.688;2023-07-02T04:24:37;17.50;58.80
24217;DHT22;12356;49.386;8.688;2023-07-02T04:27:07;17.50;59.30
24217;DHT22;12356;49.386;8.688;2023-07-02T04:29:38;17.50;60.10
24217;DHT22;12356;49.386;8.688;2023-07-02T04:32:08;17.50;60.80
24217;DHT22;12356;49.386;8.688;2023-07-02T04:34:39;17.40;60.20
24217;DHT22;12356;49.386;8.688;2023-07-02T04:37:10;17.40;60.90
24217;DHT22;12356;49.386;8.688;2023-07-02T04:39:40;17.50;62.50
24217;DHT22;12356;49.386;8.688;2023-07-02T04:42:11;17.50;61.60
24217;DHT22;12356;49.386;8.688;2023-07-02T04:44:43;17.50;61.20
24217;DHT22;12356;49.386;8.688;2023-07-02T04:47:14;17.50;61.20
24217;DHT22;12356;49.386;8.688;2023-07-02T04:49:44;17.50;61.10
24217;DHT22;12356;49.386;8.688;2023-07-02T04:52:15;17.60;61.00
24217;DHT22;12356;49.386;8.688;2023-07-02T04:54:45;17.60;61.00
24217;DHT22;12356;49.386;8.688;2023-07-02T04:57:16;17.60;61.80
24217;DHT22;12356;49.386;8.688;2023-07-02T04:59:47;17.60;61.80
24217;DHT22;12356;49.386;8.688;2023-07-02T05:02:18;17.70;59.70
24217;DHT22;12356;49.386;8.688;2023-07-02T05:04:48;17.70;60.30
24217;DHT22;12356;49.386;8.688;2023-07-02T05:07:19;17.70;60.30
24217;DHT22;12356;49.386;8.688;2023-07-02T05:09:49;17.70;57.70
24217;DHT22;12356;49.386;8.688;2023-07-02T05:12:23;17.80;57.30
24217;DHT22;12356;49.386;8.688;2023-07-02T05:14:53;17.80;55.60
24217;DHT22;12356;49.386;8.688;2023-07-02T05:17:24;17.80;55.30
24217;DHT22;12356;49.386;8.688;2023-07-02T05:19:55;17.80;55.60
24217;DHT22;12356;49.386;8.688;2023-07-02T05:22:25;17.90;56.40
24217;DHT22;12356;49.386;8.688;2023-07-02T05:24:56;17.90;52.90
24217;DHT22;12356;49.386;8.688;2023-07-02T05:27:26;17.90;53.20
24217;DHT22;12356;49.386;8.688;2023-07-02T05:29:57;17.90;52.50
24217;DHT22;12356;49.386;8.688;2023-07-02T05:32:27;18.00;52.40
24217;DHT22;12356;49.386;8.688;2023-07-02T05:34:58;18.00;52.10
24217;DHT22;12356;49.386;8.688;2023-07-02T05:37:28;18.10;49.20
24217;DHT22;12356;49.386;8.688;2023-07-02T05:39:59;18.10;49.60
24217;DHT22;12356;49.386;8.688;2023-07-02T05:42:29;18.20;50.00
24217;DHT22;12356;49.386;8.688;2023-07-02T05:45:00;18.20;49.20
24217;DHT22;12356;49.386;8.688;2023-07-02T05:47:31;18.20;48.40
24217;DHT22;12356;49.386;8.688;2023-07-02T05:50:01;18.30;48.50
24217;DHT22;12356;49.386;8.688;2023-07-02T05:52:32;18.30;48.10
24217;DHT22;12356;49.386;8.688;2023-07-02T05:55:03;18.30;48.90
24217;DHT22;12356;49.386;8.688;2023-07-02T05:57:33;18.30;47.00
24217;DHT22;12356;49.386;8.688;2023-07-02T06:00:07;18.30;46.70
24217;DHT22;12356;49.386;8.688;2023-07-02T06:02:38;18.30;47.00
24217;DHT22;12356;49.386;8.688;2023-07-02T06:05:09;18.30;45.80
24217;DHT22;12356;49.386;8.688;2023-07-02T06:07:39;18.30;44.80
24217;DHT22;12356;49.386;8.688;2023-07-02T06:10:10;18.30;44.20
24217;DHT22;12356;49.386;8.688;2023-07-02T06:12:40;18.30;45.40
24217;DHT22;12356;49.386;8.688;2023-07-02T06:15:12;18.40;46.10
24217;DHT22;12356;49.386;8.688;2023-07-02T06:17:42;18.40;46.30
24217;DHT22;12356;49.386;8.688;2023-07-02T06:20:13;18.40;44.10
24217;DHT22;12356;49.386;8.688;2023-07-02T06:22:43;18.40;42.70
24217;DHT22;12356;49.386;8.688;2023-07-02T06:25:14;18.40;39.60
24217;DHT22;12356;49.386;8.688;2023-07-02T06:27:45;18.40;40.20
24217;DHT22;12356;49.386;8.688;2023-07-02T06:30:15;18.50;41.60
24217;DHT22;12356;49.386;8.688;2023-07-02T06:32:46;18.50;40.10
24217;DHT22;12356;49.386;8.688;2023-07-02T06:35:17;18.50;33.50
24217;DHT22;12356;49.386;8.688;2023-07-02T06:37:47;18.50;31.40
24217;DHT22;12356;49.386;8.688;2023-07-02T06:40:18;18.50;33.70
24217;DHT22;12356;49.386;8.688;2023-07-02T06:42:48;18.50;33.10
24217;DHT22;12356;49.386;8.688;2023-07-02T06:45:19;18.60;33.80
24217;DHT22;12356;49.386;8.688;2023-07-02T06:47:50;18.60;32.20
24217;DHT22;12356;49.386;8.688;2023-07-02T06:50:20;18.60;31.50
24217;DHT22;12356;49.386;8.688;2023-07-02T06:52:52;18.70;29.50
24217;DHT22;12356;49.386;8.688;2023-07-02T06:55:23;18.70;29.30
24217;DHT22;12356;49.386;8.688;2023-07-02T06:57:54;18.70;29.80
24217;DHT22;12356;49.386;8.688;2023-07-02T07:00:24;18.80;29.80
24217;DHT22;12356;49.386;8.688;2023-07-02T07:02:55;18.80;30.40
24217;DHT22;12356;49.386;8.688;2023-07-02T07:05:25;18.80;30.10
24217;DHT22;12356;49.386;8.688;2023-07-02T07:07:56;18.90;30.30
24217;DHT22;12356;49.386;8.688;2023-07-02T07:10:27;18.90;28.20
24217;DHT22;12356;49.386;8.688;2023-07-02T07:12:58;18.90;27.00
24217;DHT22;12356;49.386;8.688;2023-07-02T07:15:33;18.90;27.60
24217;DHT22;12356;49.386;8.688;2023-07-02T07:18:04;19.00;27.10
24217;DHT22;12356;49.386;8.688;2023-07-02T07:20:35;19.10;24.60
24217;DHT22;12356;49.386;8.688;2023-07-02T07:23:05;19.10;25.60
24217;DHT22;12356;49.386;8.688;2023-07-02T07:25:36;19.20;25.40
24217;DHT22;12356;49.386;8.688;2023-07-02T07:28:06;19.30;25.10
24217;DHT22;12356;49.386;8.688;2023-07-02T07:30:37;19.30;22.10
24217;DHT22;12356;49.386;8.688;2023-07-02T07:33:08;19.30;21.40
24217;DHT22;12356;49.386;8.688;2023-07-02T07:35:38;19.40;19.60
24217;DHT22;12356;49.386;8.688;2023-07-02T07:38:09;19.40;19.20
24217;DHT22;12356;49.386;8.688;2023-07-02T07:40:40;19.50;19.70
24217;DHT22;12356;49.386;8.688;2023-07-02T07:43:11;19.60;20.10
24217;DHT22;12356;49.386;8.688;2023-07-02T07:45:42;19.70;18.60
24217;DHT22;12356;49.386;8.688;2023-07-02T07:48:12;19.80;19.90
24217;DHT22;12356;49.386;8.688;2023-07-02T07:50:43;19.80;19.90
24217;DHT22;12356;49.386;8.688;2023-07-02T07:53:14;19.90;19.30
24217;DHT22;12356;49.386;8.688;2023-07-02T07:55:44;19.90;16.60
24217;DHT22;12356;49.386;8.688;2023-07-02T07:58:15;20.00;19.10
24217;DHT22;12356;49.386;8.688;2023-07-02T08:00:46;20.10;19.60
24217;DHT22;12356;49.386;8.688;2023-07-02T08:03:17;20.20;20.20
24217;DHT22;12356;49.386;8.688;2023-07-02T08:05:47;20.20;18.40
24217;DHT22;12356;49.386;8.688;2023-07-02T08:08:18;20.30;16.20
24217;DHT22;12356;49.386;8.688;2023-07-02T08:10:48;20.40;17.30
24217;DHT22;12356;49.386;8.688;2023-07-02T08:13:20;20.50;16.60
24217;DHT22;12356;49.386;8.688;2023-07-02T08:15:51;20.50;16.40
24217;DHT22;12356;49.386;8.688;2023-07-02T08:18:21;20.40;13.20
24217;DHT22;12356;49.386;8.688;2023-07-02T08:20:52;20.40;15.00
24217;DHT22;12356;49.386;8.688;2023-07-02T08:23:22;20.50;15.80
24217;DHT22;12356;49.386;8.688;2023-07-02T08:25:53;20.50;12.40
24217;DHT22;12356;49.386;8.688;2023-07-02T08:28:23;20.50;14.00
24217;DHT22;12356;49.386;8.688;2023-07-02T08:30:54;20.60;12.70
24217;DHT22;12356;49.386;8.688;2023-07-02T08:33:25;20.60;12.50
24217;DHT22;12356;49.386;8.688;2023-07-02T08:35:55;20.50;10.30
24217;DHT22;12356;49.386;8.688;2023-07-02T08:38:26;20.50;10.70
24217;DHT22;12356;49.386;8.688;2023-07-02T08:40:57;20.40;10.50
24217;DHT22;12356;49.386;8.688;2023-07-02T08:43:29;20.50;10.10
24217;DHT22;12356;49.386;8.688;2023-07-02T08:45:59;20.40;8.80
24217;DHT22;12356;49.386;8.688;2023-07-02T08:48:30;20.50;11.90
24217;DHT22;12356;49.386;8.688;2023-07-02T08:51:02;20.60;11.90
24217;DHT22;12356;49.386;8.688;2023-07-02T08:53:33;20.60;9.90
24217;DHT22;12356;49.386;8.688;2023-07-02T08:56:04;20.60;8.20
24217;DHT22;12356;49.386;8.688;2023-07-02T08:58:34;20.60;7.70
24217;DHT22;12356;49.386;8.688;2023-07-02T09:01:10;20.50;5.20
24217;DHT22;12356;49.386;8.688;2023-07-02T09:03:41;20.50;5.90
24217;DHT22;12356;49.386;8.688;2023-07-02T09:06:12;20.50;8.30
24217;DHT22;12356;49.386;8.688;2023-07-02T09:08:43;20.50;7.20
24217;DHT22;12356;49.386;8.688;2023-07-02T09:11:15;20.50;8.80
24217;DHT22;12356;49.386;8.688;2023-07-02T09:13:48;20.60;9.30
24217;DHT22;12356;49.386;8.688;2023-07-02T09:16:27;20.70;9.90
24217;DHT22;12356;49.386;8.688;2023-07-02T09:19:03;20.70;9.10
24217;DHT22;12356;49.386;8.688;2023-07-02T09:21:49;20.70;5.70
24217;DHT22;12356;49.386;8.688;2023-07-02T09:24:23;20.60;6.00
24217;DHT22;12356;49.386;8.688;2023-07-02T09:26:56;20.60;6.50
24217;DHT22;12356;49.386;8.688;2023-07-02T09:29:28;20.60;7.30
24217;DHT22;12356;49.386;8.688;2023-07-02T09:32:08;20.60;6.10
24217;DHT22;12356;49.386;8.688;2023-07-02T09:34:39;20.60;6.00
24217;DHT22;12356;49.386;8.688;2023-07-02T09:37:11;20.60;5.30
24217;DHT22;12356;49.386;8.688;2023-07-02T09:39:42;20.60;6.40
24217;DHT22;12356;49.386;8.688;2023-07-02T09:42:13;20.60;7.70
24217;DHT22;12356;49.386;8.688;2023-07-02T09:44:44;20.70;4.90
24217;DHT22;12356;49.386;8.688;2023-07-02T09:47:18;20.60;4.10
24217;DHT22;12356;49.386;8.688;2023-07-02T09:49:53;20.50;4.70
24217;DHT22;12356;49.386;8.688;2023-07-02T09:52:26;20.50;5.70
24217;DHT22;12356;49.386;8.688;2023-07-02T09:54:57;20.50;4.40
24217;DHT22;12356;49.386;8.688;2023-07-02T09:57:28;20.50;4.40
24217;DHT22;12356;49.386;8.688;2023-07-02T10:00:02;20.50;5.00
24217;DHT22;12356;49.386;8.688;2023-07-02T10:02:33;20.60;4.40
24217;DHT22;12356;49.386;8.688;2023-07-02T10:05:04;20.60;4.60
24217;DHT22;12356;49.386;8.688;2023-07-02T10:07:35;20.60;4.90
24217;DHT22;12356;49.386;8.688;2023-07-02T10:10:06;20.60;6.00
24217;DHT22;12356;49.386;8.688;2023-07-02T10:12:45;20.70;6.10
24217;DHT22;12356;49.386;8.688;2023-07-02T10:15:28;20.70;4.00
24217;DHT22;12356;49.386;8.688;2023-07-02T10:18:01;20.70;2.30
24217;DHT22;12356;49.386;8.688;2023-07-02T10:20:41;20.80;1.90
24217;DHT22;12356;49.386;8.688;2023-07-02T10:23:12;20.80;3.80
24217;DHT22;12356;49.386;8.688;2023-07-02T10:25:42;20.90;2.90
24217;DHT22;12356;49.386;8.688;2023-07-02T10:28:17;20.80;2.90
24217;DHT22;12356;49.386;8.688;2023-07-02T10:30:48;20.80;2.50
24217;DHT22;12356;49.386;8.688;2023-07-02T10:33:19;20.80;3.80
24217;DHT22;12356;49.386;8.688;2023-07-02T10:35:50;20.90;5.80
24217;DHT22;12356;49.386;8.688;2023-07-02T10:38:21;20.90;4.30
24217;DHT22;12356;49.386;8.688;2023-07-02T10:41:00;20.80;3.20
24217;DHT22;12356;49.386;8.688;2023-07-02T10:43:33;20.90;4.30
24217;DHT22;12356;49.386;8.688;2023-07-02T10:46:04;20.90;4.20
24217;DHT22;12356;49.386;8.688;2023-07-02T10:48:35;21.00;2.40
24217;DHT22;12356;49.386;8.688;2023-07-02T10:51:12;21.00;4.00
24217;DHT22;12356;49.386;8.688;2023-07-02T10:53:43;21.00;6.00
24217;DHT22;12356;49.386;8.688;2023-07-02T10:56:16;21.00;4.30
24217;DHT22;12356;49.386;8.688;2023-07-02T10:58:47;21.00;2.60
24217;DHT22;12356;49.386;8.688;2023-07-02T11:01:26;21.00;1.00
24217;DHT22;12356;49.386;8.688;2023-07-02T11:04:04;21.10;3.30
24217;DHT22;12356;49.386;8.688;2023-07-02T11:06:35;21.20;1.70
24217;DHT22;12356;49.386;8.688;2023-07-02T11:09:16;21.30;1.60
24217;DHT22;12356;49.386;8.688;2023-07-02T11:11:55;21.30;2.10
24217;DHT22;12356;49.386;8.688;2023-07-02T11:14:35;21.30;1.60
24217;DHT22;12356;49.386;8.688;2023-07-02T11:17:07;21.40;3.00
24217;DHT22;12356;49.386;8.688;2023-07-02T11:19:37;21.40;1.20
24217;DHT22;12356;49.386;8.688;2023-07-02T11:22:08;21.50;1.00
24217;DHT22;12356;49.386;8.688;2023-07-02T11:24:38;21.50;1.00
24217;DHT22;12356;49.386;8.688;2023-07-02T11:27:20;21.50;1.00
24217;DHT22;12356;49.386;8.688;2023-07-02T11:29:58;21.40;1.00
24217;DHT22;12356;49.386;8.688;2023-07-02T11:32:29;21.40;1.90
24217;DHT22;12356;49.386;8.688;2023-07-02T11:35:00;21.50;1.00
24217;DHT22;12356;49.386;8.688;2023-07-02T11:37:30;21.50;1.00
24217;DHT22;12356;49.386;8.688;2023-07-02T11:40:01;21.60;1.10
24217;DHT22;12356;49.386;8.688;2023-07-02T11:42:31;21.70;2.00
24217;DHT22;12356;49.386;8.688;2023-07-02T11:45:02;21.80;1.00
24217;DHT22;12356;49.386;8.688;2023-07-02T11:47:33;21.90;1.00
24217;DHT22;12356;49.386;8.688;2023-07-02T11:50:03;21.90;1.00
24217;DHT22;12356;49.386;8.688;2023-07-02T11:52:34;22.00;1.00
24217;DHT22;12356;49.386;8.688;2023-07-02T11:55:05;22.10;1.10
24217;DHT22;12356;49.386;8.688;2023-07-02T11:57:36;22.10;1.00
24217;DHT22;12356;49.386;8.688;2023-07-02T12:00:07;22.10;1.00
24217;DHT22;12356;49.386;8.688;2023-07-02T12:02:37;22.10;1.00
24217;DHT22;12356;49.386;8.688;2023-07-02T12:05:08;22.10;1.00
24217;DHT22;12356;49.386;8.688;2023-07-02T12:07:39;22.10;1.00
24217;DHT22;12356;49.386;8.688;2023-07-02T12:10:09;22.10;1.00
24217;DHT22;12356;49.386;8.688;2023-07-02T12:12:40;22.00;1.00
24217;DHT22;12356;49.386;8.688;2023-07-02T12:15:10;22.00;1.00
24217;DHT22;12356;49.386;8.688;2023-07-02T12:17:41;22.00;1.00
24217;DHT22;12356;49.386;8.688;2023-07-02T12:20:12;22.00;1.00
24217;DHT22;12356;49.386;8.688;2023-07-02T12:22:42;22.10;1.00
24217;DHT22;12356;49.386;8.688;2023-07-02T12:25:14;22.20;1.00
24217;DHT22;12356;49.386;8.688;2023-07-02T12:27:45;22.30;1.00
24217;DHT22;12356;49.386;8.688;2023-07-02T12:30:16;22.30;1.00
24217;DHT22;12356;49.386;8.688;2023-07-02T12:32:47;22.40;1.00
24217;DHT22;12356;49.386;8.688;2023-07-02T12:35:18;22.50;1.00
24217;DHT22;12356;49.386;8.688;2023-07-02T12:37:51;22.60;1.00
24217;DHT22;12356;49.386;8.688;2023-07-02T12:40:22;22.50;1.00
24217;DHT22;12356;49.386;8.688;2023-07-02T12:42:52;22.50;1.00
24217;DHT22;12356;49.386;8.688;2023-07-02T12:45:23;22.50;1.00
24217;DHT22;12356;49.386;8.688;2023-07-02T12:47:54;22.60;1.00
24217;DHT22;12356;49.386;8.688;2023-07-02T12:50:24;22.70;1.00
24217;DHT22;12356;49.386;8.688;2023-07-02T12:52:55;22.80;1.00
24217;DHT22;12356;49.386;8.688;2023-07-02T12:55:25;23.00;1.00
24217;DHT22;12356;49.386;8.688;2023-07-02T12:57:56;23.00;1.00
24217;DHT22;12356;49.386;8.688;2023-07-02T13:00:26;23.00;1.00
24217;DHT22;12356;49.386;8.688;2023-07-02T13:02:57;22.90;1.00
24217;DHT22;12356;49.386;8.688;2023-07-02T13:05:28;22.90;1.00
24217;DHT22;12356;49.386;8.688;2023-07-02T13:07:58;23.00;1.00
24217;DHT22;12356;49.386;8.688;2023-07-02T13:10:29;23.00;1.00
24217;DHT22;12356;49.386;8.688;2023-07-02T13:13:00;22.90;1.00
24217;DHT22;12356;49.386;8.688;2023-07-02T13:15:31;23.00;1.00
24217;DHT22;12356;49.386;8.688;2023-07-02T13:18:02;23.00;1.00
24217;DHT22;12356;49.386;8.688;2023-07-02T13:20:32;23.10;1.00
24217;DHT22;12356;49.386;8.688;2023-07-02T13:23:03;23.10;1.00
24217;DHT22;12356;49.386;8.688;2023-07-02T13:25:34;23.10;1.00
24217;DHT22;12356;49.386;8.688;2023-07-02T13:28:04;23.20;1.00
24217;DHT22;12356;49.386;8.688;2023-07-02T13:30:35;23.20;1.00
24217;DHT22;12356;49.386;8.688;2023-07-02T13:33:06;23.20;1.00
24217;DHT22;12356;49.386;8.688;2023-07-02T13:35:36;23.20;1.00
24217;DHT22;12356;49.386;8.688;2023-07-02T13:38:08;23.20;1.00
24217;DHT22;12356;49.386;8.688;2023-07-02T13:40:39;23.20;1.00
24217;DHT22;12356;49.386;8.688;2023-07-02T13:43:09;23.30;1.00
24217;DHT22;12356;49.386;8.688;2023-07-02T13:45:40;23.30;1.00
24217;DHT22;12356;49.386;8.688;2023-07-02T13:48:10;23.30;1.00
24217;DHT22;12356;49.386;8.688;2023-07-02T13:50:41;23.40;1.00
24217;DHT22;12356;49.386;8.688;2023-07-02T13:53:11;23.40;1.00
24217;DHT22;12356;49.386;8.688;2023-07-02T13:55:42;23.40;1.00
24217;DHT22;12356;49.386;8.688;2023-07-02T13:58:13;23.50;1.00
24217;DHT22;12356;49.386;8.688;2023-07-02T14:00:43;23.40;1.00
24217;DHT22;12356;49.386;8.688;2023-07-02T14:03:14;23.40;1.00
24217;DHT22;12356;49.386;8.688;2023-07-02T14:05:45;23.40;1.00
24217;DHT22;12356;49.386;8.688;2023-07-02T14:08:15;23.40;1.00
24217;DHT22;12356;49.386;8.688;2023-07-02T14:10:46;23.40;1.00
24217;DHT22;12356;49.386;8.688;2023-07-02T14:13:16;23.40;1.00
24217;DHT22;12356;49.386;8.688;2023-07-02T14:15:47;23.50;1.00
24217;DHT22;12356;49.386;8.688;2023-07-02T14:18:18;23.60;1.00
24217;DHT22;12356;49.386;8.688;2023-07-02T14:20:48;23.50;1.00
24217;DHT22;12356;49.386;8.688;2023-07-02T14:23:19;23.50;1.00
24217;DHT22;12356;49.386;8.688;2023-07-02T14:25:49;23.60;1.00
24217;DHT22;12356;49.386;8.688;2023-07-02T14:28:20;23.60;1.00
24217;DHT22;12356;49.386;8.688;2023-07-02T14:30:56;23.60;1.00
24217;DHT22;12356;49.386;8.688;2023-07-02T14:33:29;23.70;1.00
24217;DHT22;12356;49.386;8.688;2023-07-02T14:36:00;23.90;1.00
24217;DHT22;12356;49.386;8.688;2023-07-02T14:38:31;24.00;1.00
24217;DHT22;12356;49.386;8.688;2023-07-02T14:41:03;23.90;1.00
24217;DHT22;12356;49.386;8.688;2023-07-02T14:43:34;23.80;1.00
24217;DHT22;12356;49.386;8.688;2023-07-02T14:46:04;23.80;1.00
24217;DHT22;12356;49.386;8.688;2023-07-02T14:48:35;23.80;1.00
24217;DHT22;12356;49.386;8.688;2023-07-02T14:51:05;23.80;1.00
24217;DHT22;12356;49.386;8.688;2023-07-02T14:53:37;23.90;1.00
24217;DHT22;12356;49.386;8.688;2023-07-02T14:56:08;23.90;1.00
24217;DHT22;12356;49.386;8.688;2023-07-02T14:58:39;23.90;1.00
24217;DHT22;12356;49.386;8.688;2023-07-02T15:01:09;24.00;1.00
24217;DHT22;12356;49.386;8.688;2023-07-02T15:03:40;23.90;1.00
24217;DHT22;12356;49.386;8.688;2023-07-02T15:06:13;23.90;1.00
24217;DHT22;12356;49.386;8.688;2023-07-02T15:08:44;23.90;1.00
24217;DHT22;12356;49.386;8.688;2023-07-02T15:11:17;23.90;1.00
24217;DHT22;12356;49.386;8.688;2023-07-02T15:13:48;24.00;1.00
24217;DHT22;12356;49.386;8.688;2023-07-02T15:16:18;24.00;1.00
24217;DHT22;12356;49.386;8.688;2023-07-02T15:18:50;24.10;1.00
24217;DHT22;12356;49.386;8.688;2023-07-02T15:21:21;24.20;1.00
24217;DHT22;12356;49.386;8.688;2023-07-02T15:23:52;24.20;1.00
24217;DHT22;12356;49.386;8.688;2023-07-02T15:26:23;24.10;1.00
24217;DHT22;12356;49.386;8.688;2023-07-02T15:28:53;24.10;1.00
24217;DHT22;12356;49.386;8.688;2023-07-02T15:31:24;24.10;1.00
24217;DHT22;12356;49.386;8.688;2023-07-02T15:33:54;24.00;1.00
24217;DHT22;12356;49.386;8.688;2023-07-02T15:36:25;24.00;1.00
24217;DHT22;12356;49.386;8.688;2023-07-02T15:38:56;24.00;1.00
24217;DHT22;12356;49.386;8.688;2023-07-02T15:41:26;23.90;1.00
24217;DHT22;12356;49.386;8.688;2023-07-02T15:43:57;23.80;1.00
24217;DHT22;12356;49.386;8.688;2023-07-02T15:46:32;23.80;1.00
24217;DHT22;12356;49.386;8.688;2023-07-02T15:49:05;23.70;1.00
24217;DHT22;12356;49.386;8.688;2023-07-02T15:51:37;23.80;1.00
24217;DHT22;12356;49.386;8.688;2023-07-02T15:54:09;23.90;1.00
24217;DHT22;12356;49.386;8.688;2023-07-02T15:56:40;23.90;1.00
24217;DHT22;12356;49.386;8.688;2023-07-02T15:59:10;23.90;1.00
24217;DHT22;12356;49.386;8.688;2023-07-02T16:01:41;23.80;1.00
24217;DHT22;12356;49.386;8.688;2023-07-02T16:04:15;23.80;1.00